Time;durP1;ratioP1;P1;durP2;ratioP2;P2;SDS_P1;SDS_P2;PMS_P1;PMS_P2;Temp;Humidity;BMP_temperature;BMP_pressure;BME280_temperature;BME280_humidity;BME280_pressure;Samples;Min_cycle;Max_cycle;Signal;HPM_P1;HPM_P2
2021/11/23 00:01:52;;;;;;;9.13;4.65;;;;;;;1.21;70.66;101276.56;2083957;84;28255;-62
2021/11/23 00:04:54;;;;;;;7.90;4.45;;;;;;;1.14;70.68;101273.89;2084814;84;29776;-63
2021/11/23 00:07:56;;;;;;;11.12;4.58;;;;;;;1.04;70.88;101274.28;2082246;84;32177;-62
2021/11/23 00:10:58;;;;;;;15.25;5.70;;;;;;;0.97;71.01;101279.95;2078902;84;33811;-62
2021/11/23 00:14:02;;;;;;;18.23;5.97;;;;;;;0.91;71.08;101288.69;2068767;84;30343;-63
2021/11/23 00:17:04;;;;;;;10.70;5.10;;;;;;;0.88;71.37;101288.70;2081991;84;27707;-62
2021/11/23 00:20:08;;;;;;;13.30;5.92;;;;;;;0.88;71.66;101287.38;2070937;84;29026;-62
2021/11/23 00:23:11;;;;;;;10.72;5.10;;;;;;;0.92;71.82;101297.50;2073177;84;31858;-62
2021/11/23 00:26:13;;;;;;;17.98;5.50;;;;;;;0.98;71.98;101295.34;2076536;84;33319;-62
2021/11/23 00:29:15;;;;;;;10.80;4.95;;;;;;;1.03;72.12;101290.98;2089293;84;29426;-62
2021/11/23 00:32:17;;;;;;;8.45;4.22;;;;;;;1.10;72.02;101293.22;2072530;84;27714;-61
2021/11/23 00:35:19;;;;;;;8.05;4.30;;;;;;;1.14;72.00;101290.59;2081604;84;30293;-62
2021/11/23 00:38:21;;;;;;;11.03;5.33;;;;;;;1.19;72.02;101292.83;2076927;84;31117;-61
2021/11/23 00:41:24;;;;;;;13.03;5.53;;;;;;;1.25;72.09;101288.44;2086297;84;33380;-60
2021/11/23 00:44:26;;;;;;;14.28;5.78;;;;;;;1.28;71.98;101289.77;2086567;84;29912;-61
2021/11/23 00:47:28;;;;;;;18.60;6.37;;;;;;;1.30;71.93;101295.95;2076480;84;28237;-61
2021/11/23 00:50:31;;;;;;;12.75;5.70;;;;;;;1.32;71.92;101291.56;2079185;84;28704;-62
2021/11/23 00:53:34;;;;;;;11.03;5.03;;;;;;;1.34;71.79;101297.28;2072474;84;31076;-61
2021/11/23 00:56:35;;;;;;;13.78;4.72;;;;;;;1.35;71.83;101298.18;2079622;84;33097;-62
2021/11/23 00:59:38;;;;;;;10.95;5.03;;;;;;;1.34;71.68;101294.64;2060961;86;29808;-62
2021/11/23 01:02:40;;;;;;;14.85;5.62;;;;;;;1.30;71.78;101286.29;2087994;84;27637;-61
2021/11/23 01:05:42;;;;;;;11.85;4.85;;;;;;;1.26;71.65;101284.50;2065581;84;29295;-67
2021/11/23 01:08:44;;;;;;;11.65;5.12;;;;;;;1.20;71.68;101282.72;2065727;84;32423;-64
2021/11/23 01:11:45;;;;;;;11.28;4.90;;;;;;;1.13;71.59;101278.72;2091913;84;32895;-62
2021/11/23 01:14:47;;;;;;;10.23;4.95;;;;;;;1.05;71.56;101283.51;2089220;84;30177;-66
2021/11/23 01:17:49;;;;;;;8.10;4.25;;;;;;;0.98;71.76;101279.51;2086158;83;27668;-61
2021/11/23 01:20:52;;;;;;;9.85;4.90;;;;;;;0.90;71.70;101270.23;2082541;84;29286;-62
2021/11/23 01:23:56;;;;;;;10.00;4.75;;;;;;;0.81;71.83;101267.09;2086711;84;31287;-61
2021/11/23 01:26:57;;;;;;;9.20;4.73;;;;;;;0.72;71.86;101266.59;2075879;84;33362;-62
2021/11/23 01:29:59;;;;;;;11.22;5.22;;;;;;;0.64;71.90;101269.64;2085879;84;29426;-62
2021/11/23 01:33:01;;;;;;;12.68;5.35;;;;;;;0.56;71.80;101266.95;2086508;84;27644;-60
2021/11/23 01:36:04;;;;;;;11.12;5.35;;;;;;;0.47;71.93;101269.95;2065045;84;30077;-61
2021/11/23 01:39:06;;;;;;;14.58;5.90;;;;;;;0.38;71.91;101268.12;2079011;84;31948;-61
2021/11/23 01:42:08;;;;;;;9.20;5.12;;;;;;;0.28;72.00;101268.02;2073181;84;34284;-62
2021/11/23 01:45:11;;;;;;;10.98;5.67;;;;;;;0.20;72.05;101270.14;2072838;84;29192;-61
2021/11/23 01:48:13;;;;;;;9.50;5.60;;;;;;;0.11;72.02;101275.80;2085651;84;27609;-61
2021/11/23 01:51:16;;;;;;;10.63;5.87;;;;;;;0.02;72.10;101270.42;2076953;84;29843;-61
2021/11/23 01:54:18;;;;;;;10.08;4.70;;;;;;;-0.06;72.14;101274.30;2069304;84;32037;-62
2021/11/23 01:57:20;;;;;;;12.03;5.47;;;;;;;-0.12;72.24;101275.58;2090307;84;34411;-63
2021/11/23 02:00:22;;;;;;;11.33;5.42;;;;;;;-0.17;72.29;101278.58;2090376;84;30024;-63
2021/11/23 02:03:23;;;;;;;13.83;5.45;;;;;;;-0.25;72.34;101277.64;2069293;84;27746;-64
2021/11/23 02:06:25;;;;;;;11.08;5.22;;;;;;;-0.34;72.27;101283.69;2087207;84;29863;-63
2021/11/23 02:09:27;;;;;;;11.08;4.83;;;;;;;-0.42;72.53;101283.59;2078863;84;32246;-62
2021/11/23 02:12:29;;;;;;;8.50;4.80;;;;;;;-0.46;72.58;101283.10;2076290;84;33372;-68
2021/11/23 02:15:31;;;;;;;14.25;5.55;;;;;;;-0.50;72.69;101278.66;2079464;84;30204;-63
2021/11/23 02:18:34;;;;;;;10.20;4.70;;;;;;;-0.55;72.69;101274.66;2085837;84;27709;-61
2021/11/23 02:21:35;;;;;;;15.28;6.75;;;;;;;-0.60;72.79;101277.66;2069366;84;28646;-62
2021/11/23 02:24:38;;;;;;;16.17;6.85;;;;;;;-0.64;72.83;101285.06;2066378;84;31894;-62
2021/11/23 02:27:40;;;;;;;20.55;7.45;;;;;;;-0.68;72.93;101283.28;2078618;84;34188;-62
2021/11/23 02:30:47;;;;;;;19.40;7.50;;;;;;;-0.72;73.03;101294.63;2080092;84;30341;-63
2021/11/23 02:33:50;;;;;;;17.50;7.05;;;;;;;-0.80;72.99;101294.52;2090839;84;27661;-61
2021/11/23 02:36:52;;;;;;;11.28;5.50;;;;;;;-0.83;73.12;101298.01;2072801;83;29056;-62
2021/11/23 02:39:54;;;;;;;10.88;5.05;;;;;;;-0.85;73.22;101296.20;2088451;84;31443;-61
2021/11/23 02:42:57;;;;;;;8.90;4.58;;;;;;;-0.89;73.27;101295.28;2073590;84;33366;-63
2021/11/23 02:45:58;;;;;;;12.05;5.55;;;;;;;-0.91;73.31;101291.74;2077502;84;29146;-61
2021/11/23 02:49:00;;;;;;;10.00;4.67;;;;;;;-0.94;73.38;101291.28;2085637;84;27634;-63
2021/11/23 02:52:07;;;;;;;11.73;4.70;;;;;;;-0.95;73.43;101296.09;2064528;84;28652;-62
2021/11/23 02:55:07;;;;;;;8.70;5.05;;;;;;;-0.95;73.56;101297.81;2090530;84;31055;-62
2021/11/23 02:58:10;;;;;;;9.63;5.47;;;;;;;-0.96;73.54;101300.89;2083291;84;33341;-63
2021/11/23 03:01:13;;;;;;;11.25;4.72;;;;;;;-0.97;73.48;101307.02;2087555;84;29344;-61
2021/11/23 03:04:17;;;;;;;11.00;5.12;;;;;;;-1.00;73.55;101295.58;2073760;84;27714;-62
2021/11/23 03:07:20;;;;;;;9.38;5.20;;;;;;;-1.02;73.67;101298.16;2077891;84;29942;-61
2021/11/23 03:10:24;;;;;;;13.20;5.53;;;;;;;-1.04;73.67;101306.45;2082188;84;31025;-70
2021/11/23 03:13:25;;;;;;;11.10;5.03;;;;;;;-1.05;73.72;101301.19;2071156;84;33320;-69
2021/11/23 03:16:27;;;;;;;14.30;5.55;;;;;;;-1.06;73.75;101302.91;2076945;84;30346;-69
2021/11/23 03:19:29;;;;;;;11.00;6.05;;;;;;;-1.06;73.77;101300.28;2071061;84;28243;-70
2021/11/23 03:22:31;;;;;;;14.15;6.05;;;;;;;-1.08;73.78;101300.28;2075040;84;29033;-69
2021/11/23 03:25:33;;;;;;;13.58;5.75;;;;;;;-1.10;73.82;101299.81;2093511;84;30850;-68
2021/11/23 03:28:37;;;;;;;16.67;6.87;;;;;;;-1.10;73.93;101304.63;2074396;84;33389;-70
2021/11/23 03:31:38;;;;;;;10.38;6.78;;;;;;;-1.10;73.90;101301.13;2082579;84;29955;-68
2021/11/23 03:34:42;;;;;;;13.00;7.25;;;;;;;-1.11;73.94;101299.36;2077026;84;27743;-68
2021/11/23 03:37:44;;;;;;;11.25;5.67;;;;;;;-1.14;73.97;101290.97;2093263;84;28640;-69
2021/11/23 03:40:46;;;;;;;11.75;6.22;;;;;;;-1.16;73.91;101288.78;2079101;84;32202;-69
2021/11/23 03:43:48;;;;;;;15.15;6.80;;;;;;;-1.17;73.99;101288.33;2086406;84;34168;-70
2021/11/23 03:46:50;;;;;;;15.65;6.30;;;;;;;-1.20;74.04;101287.38;2080770;84;29445;-67
2021/11/23 03:49:52;;;;;;;15.30;6.95;;;;;;;-1.22;74.16;101286.92;2072237;84;27651;-63
2021/11/23 03:52:56;;;;;;;13.18;6.70;;;;;;;-1.25;74.14;101286.90;2076134;83;30063;-66
2021/11/23 03:55:58;;;;;;;15.72;7.03;;;;;;;-1.27;74.28;101280.73;2085857;84;31409;-63
2021/11/23 03:59:00;;;;;;;16.20;7.10;;;;;;;-1.26;74.40;101286.86;2079879;84;33770;-64
2021/11/23 04:02:02;;;;;;;17.48;6.70;;;;;;;-1.26;74.34;101285.55;2085018;84;29487;-67
2021/11/23 04:05:04;;;;;;;13.22;7.10;;;;;;;-1.28;74.31;101277.64;2082294;84;27699;-62
2021/11/23 04:08:06;;;;;;;21.37;8.10;;;;;;;-1.30;74.30;101274.11;2084696;84;28728;-68
2021/11/23 04:11:08;;;;;;;17.60;7.97;;;;;;;-1.30;74.37;101277.15;2071006;84;31036;-71
2021/11/23 04:14:10;;;;;;;15.55;7.50;;;;;;;-1.30;74.35;101274.52;2079874;84;33977;-70
2021/11/23 04:17:12;;;;;;;17.48;7.58;;;;;;;-1.31;74.38;101274.97;2079333;84;30000;-70
2021/11/23 04:20:13;;;;;;;14.98;6.90;;;;;;;-1.34;74.44;101273.59;2068514;84;27736;-68
2021/11/23 04:23:15;;;;;;;19.35;8.20;;;;;;;-1.33;74.50;101274.50;2084394;84;29680;-66
2021/11/23 04:26:17;;;;;;;13.45;6.70;;;;;;;-1.34;74.56;101277.54;2089109;84;32211;-69
2021/11/23 04:29:19;;;;;;;25.27;8.68;;;;;;;-1.34;74.59;101271.41;2084580;84;33277;-63
2021/11/23 04:32:21;;;;;;;14.58;7.92;;;;;;;-1.35;74.56;101271.83;2083212;84;29085;-70
2021/11/23 04:35:23;;;;;;;17.52;8.43;;;;;;;-1.34;74.60;101265.71;2064655;84;27624;-63
2021/11/23 04:38:25;;;;;;;16.35;7.85;;;;;;;-1.38;74.53;101256.00;2087494;84;28695;-61
2021/11/23 04:41:27;;;;;;;13.80;7.58;;;;;;;-1.37;74.57;101263.03;2071792;84;30915;-69
2021/11/23 04:44:29;;;;;;;13.30;7.47;;;;;;;-1.40;74.65;101250.73;2091746;84;33409;-68
2021/11/23 04:47:31;;;;;;;18.23;8.65;;;;;;;-1.40;74.65;101258.62;2095961;83;28850;-69
2021/11/23 04:50:33;;;;;;;21.25;9.08;;;;;;;-1.42;74.65;101252.45;2075176;84;27687;-67
2021/11/23 04:53:35;;;;;;;14.18;7.58;;;;;;;-1.41;74.73;101255.98;2079434;84;28408;-70
2021/11/23 04:56:37;;;;;;;13.25;7.67;;;;;;;-1.40;74.75;101248.52;2076817;84;30441;-68
2021/11/23 04:59:39;;;;;;;12.63;7.22;;;;;;;-1.40;74.74;101248.11;2079478;84;33149;-70
2021/11/23 05:02:41;;;;;;;17.20;6.75;;;;;;;-1.41;74.78;101248.10;2112618;83;29258;-65
2021/11/23 05:05:42;;;;;;;14.87;7.35;;;;;;;-1.41;74.79;101251.59;2091411;83;27728;-67
2021/11/23 05:08:45;;;;;;;10.23;6.60;;;;;;;-1.42;74.75;101247.20;2086549;84;29063;-69
2021/11/23 05:11:48;;;;;;;11.60;6.92;;;;;;;-1.43;74.81;101248.50;2070607;85;32398;-69
2021/11/23 05:14:52;;;;;;;10.08;6.87;;;;;;;-1.45;74.82;101244.52;2074267;84;33347;-68
2021/11/23 05:17:54;;;;;;;8.28;5.17;;;;;;;-1.47;74.83;101233.55;2093879;84;29057;-67
2021/11/23 05:20:56;;;;;;;15.70;6.75;;;;;;;-1.47;74.89;101233.55;2095345;83;28280;-65
2021/11/23 05:23:58;;;;;;;7.80;5.45;;;;;;;-1.47;74.98;101233.55;2105256;83;29398;-61
2021/11/23 05:27:00;;;;;;;11.63;7.00;;;;;;;-1.47;75.00;101237.48;2089842;84;32160;-63
2021/11/23 05:30:03;;;;;;;8.50;5.97;;;;;;;-1.45;75.06;101233.14;2085269;84;32831;-70
2021/11/23 05:33:05;;;;;;;10.32;5.78;;;;;;;-1.44;75.11;101226.58;2074779;85;30229;-63
2021/11/23 05:36:07;;;;;;;14.18;5.15;;;;;;;-1.44;75.07;101226.58;2069427;84;27730;-68
2021/11/23 05:39:09;;;;;;;7.85;4.05;;;;;;;-1.45;75.09;101228.75;2074758;84;30018;-70
2021/11/23 05:42:11;;;;;;;12.05;4.00;;;;;;;-1.42;75.17;101230.56;2114369;83;32236;-63
2021/11/23 05:45:13;;;;;;;7.17;3.80;;;;;;;-1.43;75.17;101222.22;2095818;84;34330;-67
2021/11/23 05:48:15;;;;;;;8.43;4.28;;;;;;;-1.43;75.24;101216.97;2074629;83;30399;-64
2021/11/23 05:51:17;;;;;;;7.58;3.65;;;;;;;-1.42;75.22;101216.98;2070558;86;27605;-69
2021/11/23 05:54:19;;;;;;;6.78;3.15;;;;;;;-1.41;75.24;101220.06;2071156;86;29900;-68
2021/11/23 05:57:21;;;;;;;13.58;3.65;;;;;;;-1.39;75.28;101227.54;2083343;84;32230;-61
2021/11/23 06:00:23;;;;;;;10.48;3.72;;;;;;;-1.38;75.23;101231.03;2097076;84;33761;-63
2021/11/23 06:03:25;;;;;;;6.75;3.47;;;;;;;-1.37;75.15;101223.61;2090865;85;28923;-68
2021/11/23 06:06:27;;;;;;;5.83;3.60;;;;;;;-1.36;75.15;101229.32;2091407;85;27782;-68
2021/11/23 06:09:28;;;;;;;8.50;4.45;;;;;;;-1.35;75.19;101224.96;2091092;85;28798;-66
2021/11/23 06:12:31;;;;;;;12.80;5.37;;;;;;;-1.35;75.14;101224.96;2090808;85;32235;-66
2021/11/23 06:15:33;;;;;;;19.92;9.98;;;;;;;-1.32;75.20;101222.38;2090934;85;34119;-67
2021/11/23 06:18:35;;;;;;;14.58;6.30;;;;;;;-1.30;75.27;101216.69;2080672;85;30393;-66
2021/11/23 06:21:37;;;;;;;12.18;5.20;;;;;;;-1.30;75.27;101218.91;2055756;86;27717;-66
2021/11/23 06:24:39;;;;;;;10.08;4.75;;;;;;;-1.29;75.26;101217.14;2056463;86;29860;-65
2021/11/23 06:27:41;;;;;;;10.13;4.55;;;;;;;-1.28;75.28;101222.44;2055715;86;32272;-62
2021/11/23 06:30:43;;;;;;;11.60;4.55;;;;;;;-1.25;75.27;101221.17;2056375;86;33834;-63
2021/11/23 06:33:46;;;;;;;17.95;4.28;;;;;;;-1.24;75.39;101224.23;2056831;86;29399;-63
2021/11/23 06:36:48;;;;;;;13.80;4.28;;;;;;;-1.22;75.29;101229.08;2057022;86;27698;-65
2021/11/23 06:39:50;;;;;;;12.63;4.10;;;;;;;-1.18;75.26;101229.13;2057053;86;28831;-63
2021/11/23 06:42:52;;;;;;;13.22;4.17;;;;;;;-1.15;75.29;101228.73;2056918;86;31481;-65
2021/11/23 06:45:55;;;;;;;9.85;3.60;;;;;;;-1.14;75.26;101227.87;2056265;86;33029;-64
2021/11/23 06:48:58;;;;;;;13.35;4.42;;;;;;;-1.09;75.29;101222.25;2056653;86;29424;-63
2021/11/23 06:52:00;;;;;;;15.32;3.30;;;;;;;-1.03;75.34;101221.89;2055534;86;27843;-64
2021/11/23 06:55:03;;;;;;;12.15;3.62;;;;;;;-0.99;75.38;101236.41;2072538;85;29121;-64
2021/11/23 06:58:05;;;;;;;13.18;4.05;;;;;;;-0.93;75.48;101239.55;2090016;84;32241;-64
2021/11/23 07:01:07;;;;;;;7.33;3.72;;;;;;;-0.88;75.46;101238.28;2099106;84;33605;-61
2021/11/23 07:04:08;;;;;;;12.40;4.08;;;;;;;-0.83;75.53;101236.19;2111756;84;29434;-62
2021/11/23 07:07:10;;;;;;;19.15;4.47;;;;;;;-0.77;75.59;101245.45;2112466;84;27743;-62
2021/11/23 07:10:14;;;;;;;7.28;3.75;;;;;;;-0.69;75.51;101246.86;2105505;82;29908;-62
2021/11/23 07:13:16;;;;;;;12.78;4.12;;;;;;;-0.56;75.68;101247.89;2077190;85;31899;-63
2021/11/23 07:16:18;;;;;;;12.47;4.22;;;;;;;-0.38;75.80;101247.20;2108665;84;33607;-62
2021/11/23 07:19:20;;;;;;;9.90;4.65;;;;;;;-0.19;75.75;101250.03;2112232;84;30267;-66
2021/11/23 07:22:22;;;;;;;15.60;4.62;;;;;;;0.01;75.75;101254.62;2081918;83;27707;-61
2021/11/23 07:25:24;;;;;;;7.20;3.90;;;;;;;0.19;75.51;101255.20;2095314;84;29615;-65
2021/11/23 07:28:26;;;;;;;12.43;4.40;;;;;;;0.39;75.66;101253.63;2095295;84;32401;-62
2021/11/23 07:31:29;;;;;;;15.03;4.22;;;;;;;0.56;75.50;101253.77;2095362;85;33077;-62
2021/11/23 07:34:31;;;;;;;9.70;4.53;;;;;;;0.81;75.41;101258.31;2095257;85;29951;-62
2021/11/23 07:37:40;;;;;;;7.78;4.42;;;;;;;1.06;75.26;101260.20;2095377;85;27694;-62
2021/11/23 07:40:37;;;;;;;14.63;4.70;;;;;;;1.34;75.25;101257.68;2067581;85;29191;-61
2021/11/23 07:43:39;;;;;;;15.63;4.87;;;;;;;1.64;74.99;101257.79;2095294;85;31490;-62
2021/11/23 07:46:41;;;;;;;17.37;4.80;;;;;;;1.94;74.73;101256.08;2095656;85;32978;-64
2021/11/23 07:49:42;;;;;;;10.80;3.80;;;;;;;2.20;74.49;101256.11;2095185;85;30303;-63
2021/11/23 07:52:44;;;;;;;9.33;4.50;;;;;;;2.29;73.65;101257.88;2095282;85;27638;-62
2021/11/23 07:55:49;;;;;;;8.43;3.25;;;;;;;2.33;73.48;101253.47;2091840;85;28633;-66
2021/11/23 07:58:51;;;;;;;9.78;3.80;;;;;;;2.40;73.04;101248.17;2094664;84;32145;-65
2021/11/23 08:01:53;;;;;;;8.93;4.12;;;;;;;2.41;72.70;101235.39;2079377;84;33415;-63
2021/11/23 08:04:54;;;;;;;11.33;4.78;;;;;;;2.46;72.68;101245.09;2086645;85;30297;-53
2021/11/23 08:07:56;;;;;;;10.70;3.50;;;;;;;2.50;72.65;101241.11;2068919;85;27711;-50
2021/11/23 08:11:00;;;;;;;8.68;3.75;;;;;;;2.58;72.32;101234.49;2061723;85;29728;-62
2021/11/23 08:14:01;;;;;;;11.28;4.45;;;;;;;2.68;72.13;101238.00;2089928;85;31856;-55
2021/11/23 08:17:03;;;;;;;8.63;3.90;;;;;;;2.79;72.06;101236.66;2090556;84;33390;-61
2021/11/23 08:20:10;;;;;;;11.33;4.85;;;;;;;2.89;72.16;101227.84;2064167;85;29431;-49
2021/11/23 08:23:12;;;;;;;11.80;4.05;;;;;;;3.02;72.06;101224.26;2068287;85;27795;-51
2021/11/23 08:26:14;;;;;;;16.07;4.42;;;;;;;3.15;71.18;101229.05;2088449;85;30070;-58
2021/11/23 08:29:16;;;;;;;12.78;4.75;;;;;;;3.28;71.44;101220.61;2073332;85;32167;-57
2021/11/23 08:32:18;;;;;;;13.00;5.17;;;;;;;3.44;71.28;101220.11;2090535;85;34176;-58
2021/11/23 08:35:20;;;;;;;13.32;4.92;;;;;;;3.59;71.12;101215.16;2087177;84;30276;-59
2021/11/23 08:38:22;;;;;;;17.32;5.83;;;;;;;3.79;71.26;101209.75;2086513;85;27685;-60
2021/11/23 08:41:24;;;;;;;7.78;4.05;;;;;;;4.06;70.91;101205.55;2073642;85;29913;-51
2021/11/23 08:44:26;;;;;;;17.95;5.03;;;;;;;4.35;70.90;101201.79;2056327;85;31509;-52
2021/11/23 08:47:28;;;;;;;14.75;5.37;;;;;;;4.58;70.73;101211.28;2067306;85;33848;-50
2021/11/23 08:50:31;;;;;;;13.72;5.40;;;;;;;4.75;70.23;101218.62;2066002;85;29171;-56
2021/11/23 08:53:33;;;;;;;13.03;4.80;;;;;;;4.89;70.16;101217.59;2067999;85;27690;-49
2021/11/23 08:56:38;;;;;;;10.85;5.15;;;;;;;5.01;69.88;101223.64;2071506;85;28670;-50
2021/11/23 08:59:43;;;;;;;11.95;4.67;;;;;;;5.14;69.83;101229.70;2056445;86;31916;-48
2021/11/23 09:02:48;;;;;;;11.57;4.90;;;;;;;5.23;69.52;101234.02;2056401;86;32957;-51
2021/11/23 09:05:51;;;;;;;15.43;4.42;;;;;;;5.27;69.08;101237.52;2034044;86;29936;-56
2021/11/23 09:08:58;;;;;;;15.65;5.12;;;;;;;5.33;69.24;101238.31;2056865;86;27998;-64
2021/11/23 09:12:01;;;;;;;9.30;4.05;;;;;;;5.41;69.05;101244.85;2055643;86;29888;-68
2021/11/23 09:15:02;;;;;;;11.53;5.10;;;;;;;5.48;69.30;101241.66;2056421;86;31929;-69
2021/11/23 09:18:06;;;;;;;14.18;4.95;;;;;;;5.54;68.93;101240.27;2055426;86;34064;-76
2021/11/23 09:34:44;;;;;;;8.80;4.80;;;;;;;5.93;68.68;101223.75;2136634;83;31955;-61
2021/11/23 09:37:45;;;;;;;12.28;5.03;;;;;;;6.08;68.75;101211.56;2136574;83;33407;-73
2021/11/23 09:40:47;;;;;;;11.93;5.70;;;;;;;6.13;68.49;101214.15;2136640;83;29076;-69
2021/11/23 09:43:49;;;;;;;12.13;6.05;;;;;;;6.15;68.40;101214.14;2136915;83;27684;-55
2021/11/23 09:46:51;;;;;;;12.43;6.95;;;;;;;6.19;68.70;101211.39;2136472;83;30833;-54
2021/11/23 09:49:55;;;;;;;14.03;6.55;;;;;;;6.29;68.77;101204.61;2136675;83;32255;-57
2021/11/23 09:52:58;;;;;;;16.80;6.05;;;;;;;6.38;68.70;101210.62;2135928;83;33945;-65
2021/11/23 09:56:01;;;;;;;11.08;5.15;;;;;;;6.46;68.87;101204.30;2021195;87;28273;-56
2021/11/23 09:59:05;;;;;;;13.83;4.97;;;;;;;6.50;68.82;101200.68;2017760;87;27779;-61
2021/11/23 10:02:08;;;;;;;11.90;5.50;;;;;;;6.68;68.86;101209.66;2009689;87;28718;-56
2021/11/23 10:05:11;;;;;;;12.78;5.53;;;;;;;6.80;68.42;101197.02;2005353;87;32266;-54
2021/11/23 10:08:18;;;;;;;13.35;5.85;;;;;;;6.89;68.25;101206.61;1989639;87;33535;-54
2021/11/23 10:11:25;;;;;;;12.47;5.60;;;;;;;6.90;68.17;101208.36;1987744;89;29032;-57
2021/11/23 10:14:27;;;;;;;13.22;6.47;;;;;;;6.92;68.19;101206.55;1989473;87;28318;-57
2021/11/23 10:17:29;;;;;;;13.15;5.87;;;;;;;6.95;68.04;101199.84;1992194;87;28736;-58
2021/11/23 10:20:40;;;;;;;12.10;5.87;;;;;;;6.92;68.10;101194.09;1991865;87;31474;-59
2021/11/23 10:23:52;;;;;;;16.15;7.15;;;;;;;6.94;68.26;101180.77;1984003;87;33828;-57
2021/11/23 10:26:56;;;;;;;13.75;5.92;;;;;;;7.03;68.34;101183.23;1991374;87;30193;-61
2021/11/23 10:30:00;;;;;;;12.47;4.97;;;;;;;7.08;68.10;101172.03;1994698;87;27783;-55
2021/11/23 10:33:04;;;;;;;14.33;6.20;;;;;;;7.12;68.06;101183.02;1992704;87;28684;-60
2021/11/23 10:36:10;;;;;;;11.28;6.25;;;;;;;7.11;67.75;101171.08;1978615;88;31943;-54
2021/11/23 10:39:17;;;;;;;13.32;6.35;;;;;;;7.12;67.89;101197.67;2001759;87;34149;-62
2021/11/23 10:42:19;;;;;;;11.50;4.87;;;;;;;7.07;67.93;101202.25;1991864;87;29893;-59
2021/11/23 10:45:21;;;;;;;9.43;4.47;;;;;;;7.03;67.97;101197.88;1974402;87;27875;-62
2021/11/23 10:48:26;;;;;;;13.72;4.97;;;;;;;6.94;67.75;101195.42;2004234;87;29926;-65
2021/11/23 10:51:39;;;;;;;10.40;5.83;;;;;;;6.84;67.95;101194.72;2001277;85;31052;-67
2021/11/23 10:54:41;;;;;;;12.03;5.20;;;;;;;6.77;68.06;101183.75;2086035;83;32957;-64
2021/11/23 10:57:44;;;;;;;8.75;5.05;;;;;;;6.75;68.18;101193.55;2085278;83;30258;-68
2021/11/23 11:00:49;;;;;;;17.42;7.58;;;;;;;6.73;68.26;101187.38;2083681;83;27680;-64
2021/11/23 11:03:51;;;;;;;27.95;14.58;;;;;;;6.74;68.25;101191.36;2089880;82;30302;-66
2021/11/23 11:06:55;;;;;;;35.20;19.73;;;;;;;6.78;68.49;101202.38;2087797;83;32328;-63
2021/11/23 11:09:58;;;;;;;81.57;42.80;;;;;;;6.80;68.47;101205.86;2100270;82;33360;-69
2021/11/23 11:13:04;;;;;;;19.67;9.35;;;;;;;6.82;68.57;101196.06;2089439;82;29093;-65
2021/11/23 11:16:06;;;;;;;46.25;23.95;;;;;;;6.87;68.71;101192.44;2094701;82;28485;-60
2021/11/23 11:19:18;;;;;;;33.73;15.95;;;;;;;6.92;68.86;101186.11;2099206;83;30080;-62
2021/11/23 11:22:21;;;;;;;64.53;33.50;;;;;;;6.94;68.73;101191.42;2088591;82;31176;-61
2021/11/23 11:25:26;;;;;;;23.75;11.00;;;;;;;6.99;68.91;101182.86;2098585;83;32991;-62
2021/11/23 11:28:49;;;;;;;18.05;10.18;;;;;;;7.04;68.90;101185.42;2100034;83;30206;-66
2021/11/23 11:31:51;;;;;;;17.73;6.00;;;;;;;7.10;68.80;101189.30;2095328;83;27680;-57
2021/11/23 11:34:53;;;;;;;15.38;5.37;;;;;;;7.12;68.75;101183.49;2095944;82;29767;-64
2021/11/23 11:38:01;;;;;;;13.15;6.40;;;;;;;7.13;68.68;101191.91;2101357;82;31397;-61
2021/11/23 11:41:10;;;;;;;27.22;11.73;;;;;;;7.15;68.82;101196.76;2099920;82;33013;-68
2021/11/23 11:44:20;;;;;;;63.90;21.15;;;;;;;7.13;68.89;101198.10;2084374;82;28928;-65
2021/11/23 11:47:34;;;;;;;62.38;20.30;;;;;;;7.13;68.80;101194.10;2092431;82;27655;-61
2021/11/23 11:50:36;;;;;;;38.33;17.23;;;;;;;7.10;68.69;101179.55;2098640;82;28667;-70
2021/11/23 11:53:48;;;;;;;12.55;7.10;;;;;;;7.07;68.78;101188.03;2093091;82;31404;-68
2021/11/23 11:56:52;;;;;;;6.42;5.12;;;;;;;7.05;68.94;101187.17;2101471;84;32980;-66
2021/11/23 11:59:54;;;;;;;12.03;5.87;;;;;;;7.07;69.08;101188.92;2089879;82;29040;-63
2021/11/23 12:03:15;;;;;;;21.93;10.88;;;;;;;7.07;69.13;101194.69;2094906;82;27589;-63
2021/11/23 12:06:16;;;;;;;16.70;8.18;;;;;;;7.05;69.09;101198.73;2086228;82;30846;-65
2021/11/23 12:09:30;;;;;;;28.67;13.60;;;;;;;7.03;69.10;101183.23;2093624;84;31442;-65
2021/11/23 12:12:38;;;;;;;31.75;14.40;;;;;;;7.01;69.05;101190.38;2093226;84;48322;-71
2021/11/23 12:16:06;;;;;;;32.45;13.95;;;;;;;7.00;69.21;101187.28;2100316;83;29310;-71
2021/11/23 12:19:39;;;;;;;18.75;8.35;;;;;;;6.92;68.95;101192.77;2104201;84;27607;-72
2021/11/23 12:22:44;;;;;;;11.15;5.28;;;;;;;6.89;69.14;101186.16;1966501;89;29715;-66
2021/11/23 12:26:04;;;;;;;13.40;8.78;;;;;;;6.84;69.05;101186.73;1957799;90;32240;-68
2021/11/23 12:29:12;;;;;;;24.25;11.20;;;;;;;6.77;69.05;101187.30;1957157;90;33807;-70
2021/11/23 12:32:14;;;;;;;26.02;13.75;;;;;;;6.75;69.24;101196.21;1963352;89;29175;-69
2021/11/23 12:35:16;;;;;;;16.85;9.38;;;;;;;6.74;69.36;101195.34;1957685;90;27691;-70
2021/11/23 12:38:31;;;;;;;14.15;8.58;;;;;;;6.74;69.53;101188.69;1956164;90;28791;-63
2021/11/23 12:41:34;;;;;;;16.52;7.45;;;;;;;6.73;69.44;101185.60;1957740;90;31027;-70
2021/11/23 12:44:44;;;;;;;18.57;9.73;;;;;;;6.70;69.48;101189.65;1956576;89;33368;-68
2021/11/23 12:47:49;;;;;;;14.73;7.70;;;;;;;6.64;69.48;101184.42;1971719;89;29428;-70
2021/11/23 12:50:51;;;;;;;15.83;8.68;;;;;;;6.62;69.56;101188.47;1957859;89;27771;-71
2021/11/23 12:54:03;;;;;;;14.50;8.15;;;;;;;6.58;69.62;101192.55;1970056;89;29910;-68
2021/11/23 12:57:12;;;;;;;18.07;9.18;;;;;;;6.57;69.73;101193.45;2062088;84;31245;-70
2021/11/23 13:00:16;;;;;;;20.97;10.93;;;;;;;6.58;69.79;101188.09;2103499;84;33113;-73
2021/11/23 13:03:19;;;;;;;24.23;13.88;;;;;;;6.58;69.71;101194.75;2092512;83;29856;-70
2021/11/23 13:06:21;;;;;;;24.60;11.65;;;;;;;6.61;69.66;101196.49;2037860;86;27675;-74
2021/11/23 13:09:23;;;;;;;17.42;10.10;;;;;;;6.59;69.68;101201.83;2038667;86;29873;-71
2021/11/23 13:12:30;;;;;;;18.87;9.90;;;;;;;6.58;69.72;101202.73;2064136;84;31313;-69
2021/11/23 13:15:47;;;;;;;17.32;10.08;;;;;;;6.59;69.81;101205.83;2096561;84;33819;-70
2021/11/23 13:18:51;;;;;;;21.10;11.57;;;;;;;6.64;69.99;101209.28;2096360;84;29191;-72
2021/11/23 13:22:04;;;;;;;14.63;8.80;;;;;;;6.67;69.94;101214.56;2082468;84;27798;-72
2021/11/23 13:25:06;;;;;;;14.05;8.95;;;;;;;6.71;69.87;101216.70;2091797;83;28664;-74
2021/11/23 13:28:11;;;;;;;11.45;7.65;;;;;;;6.68;69.82;101206.11;2096823;84;31862;-70
2021/11/23 13:31:25;;;;;;;15.32;7.70;;;;;;;6.69;69.96;101205.20;2096972;84;33396;-71
2021/11/23 13:34:27;;;;;;;16.17;9.20;;;;;;;6.72;69.95;101207.81;2084455;83;29056;-72
2021/11/23 13:37:40;;;;;;;17.55;10.13;;;;;;;6.67;69.90;101211.90;2062063;84;27699;-72
2021/11/23 13:40:43;;;;;;;18.02;9.28;;;;;;;6.61;69.86;101208.01;2061158;86;29937;-73
2021/11/23 13:43:56;;;;;;;28.67;14.07;;;;;;;6.57;69.97;101208.09;2065942;84;31262;-71
2021/11/23 13:47:07;;;;;;;25.80;12.73;;;;;;;6.54;70.05;101199.26;2096600;84;33546;-72
2021/11/23 13:50:12;;;;;;;19.37;9.58;;;;;;;6.54;70.06;101201.02;2095539;84;30126;-72
2021/11/23 13:53:13;;;;;;;14.27;7.03;;;;;;;6.50;70.10;101207.34;2093876;83;27615;-73
2021/11/23 13:56:15;;;;;;;14.50;9.73;;;;;;;6.47;70.15;101204.72;2062244;86;29733;-73
2021/11/23 13:59:18;;;;;;;14.03;8.75;;;;;;;6.41;70.11;101208.38;2071024;84;30853;-72
2021/11/23 14:02:23;;;;;;;13.98;7.53;;;;;;;6.37;70.19;101211.52;2096777;84;33144;-72
2021/11/23 14:05:49;;;;;;;22.70;11.70;;;;;;;6.36;70.27;101213.79;2102377;84;30037;-72
2021/11/23 14:08:59;;;;;;;14.75;8.50;;;;;;;6.31;70.26;101210.75;2106572;84;27771;-72
2021/11/23 14:12:03;;;;;;;18.23;11.22;;;;;;;6.27;70.35;101215.26;2104534;84;28669;-73
2021/11/23 14:15:22;;;;;;;17.82;10.65;;;;;;;6.25;70.49;101215.73;2106382;84;31076;-69
2021/11/23 14:18:28;;;;;;;17.42;8.95;;;;;;;6.21;70.44;101218.91;2089488;84;33788;-70
2021/11/23 14:21:30;;;;;;;15.48;8.60;;;;;;;6.20;70.57;101210.97;2073501;84;29055;-70
2021/11/23 14:24:37;;;;;;;9.75;6.58;;;;;;;6.20;70.66;101229.13;2106141;84;28192;-66